createdAt,value
2023-04-26T00:00:03.685Z,73.60
2023-04-26T00:02:32.537Z,74.82
2023-04-26T00:04:59.856Z,74.85
2023-04-26T00:07:26.951Z,76.06
2023-04-26T00:09:54.641Z,77.48
2023-04-26T00:12:21.843Z,77.66
2023-04-26T00:14:48.988Z,77.95
2023-04-26T00:17:17.238Z,76.97
2023-04-26T00:19:44.234Z,76.63
2023-04-26T00:22:11.394Z,76.68
2023-04-26T00:24:38.440Z,77.77
2023-04-26T00:27:27.712Z,76.96
2023-04-26T00:29:55.603Z,76.68
2023-04-26T00:32:24.914Z,77.00
2023-04-26T00:34:51.957Z,77.07
2023-04-26T00:37:18.853Z,76.91
2023-04-26T00:39:45.844Z,76.59
2023-04-26T00:42:12.871Z,76.77
2023-04-26T00:44:40.052Z,76.40
2023-04-26T00:47:07.223Z,76.23
2023-04-26T00:49:36.100Z,75.83
2023-04-26T00:52:03.082Z,75.23
2023-04-26T00:54:29.976Z,75.70
2023-04-26T00:56:58.002Z,75.75
2023-04-26T00:59:26.701Z,74.89
2023-04-26T01:01:53.717Z,74.90
2023-04-26T01:04:21.037Z,74.42
2023-04-26T01:06:49.901Z,74.53
2023-04-26T01:09:18.618Z,74.50
2023-04-26T01:11:52.043Z,73.83
2023-04-26T01:14:19.691Z,73.90
2023-04-26T01:16:47.222Z,73.39
2023-04-26T01:19:14.370Z,73.56
2023-04-26T01:21:41.670Z,73.13
2023-04-26T01:24:13.099Z,73.45
2023-04-26T01:26:40.777Z,73.83
2023-04-26T01:29:17.027Z,73.94
2023-04-26T01:31:45.117Z,74.37
2023-04-26T01:34:12.292Z,74.78
2023-04-26T01:36:39.736Z,75.00
2023-04-26T01:39:06.818Z,74.79
2023-04-26T01:41:35.282Z,72.77
2023-04-26T01:44:02.571Z,73.43
2023-04-26T01:46:31.498Z,72.93
2023-04-26T01:48:58.562Z,72.43
2023-04-26T01:51:26.036Z,71.78
2023-04-26T01:53:53.339Z,71.61
2023-04-26T01:56:24.083Z,70.56
2023-04-26T01:58:52.800Z,70.77
2023-04-26T02:02:36.584Z,74.04
2023-04-26T02:05:11.794Z,74.87
2023-04-26T02:07:58.000Z,77.60
2023-04-26T02:10:31.560Z,78.35
2023-04-26T02:12:58.434Z,79.95
2023-04-26T02:15:29.657Z,80.46
2023-04-26T02:17:56.700Z,80.53
2023-04-26T02:20:23.932Z,79.50
2023-04-26T02:22:50.954Z,78.19
2023-04-26T02:25:17.986Z,76.96
2023-04-26T02:27:57.895Z,77.22
2023-04-26T02:30:26.604Z,76.30
2023-04-26T02:32:54.375Z,77.20
2023-04-26T02:35:22.052Z,76.64
2023-04-26T02:37:49.420Z,76.47
2023-04-26T02:40:16.772Z,76.50
2023-04-26T02:42:43.736Z,76.16
2023-04-26T02:45:11.684Z,76.15
2023-04-26T02:47:40.406Z,76.54
2023-04-26T02:50:09.570Z,76.55
2023-04-26T02:52:37.818Z,76.69
2023-04-26T02:55:07.024Z,77.44
2023-04-26T02:57:34.300Z,78.60
2023-04-26T03:00:01.247Z,79.17
2023-04-26T03:02:28.829Z,80.14
2023-04-26T03:04:58.095Z,80.24
2023-04-26T03:07:27.131Z,79.47
2023-04-26T03:09:58.896Z,79.17
2023-04-26T03:12:32.130Z,78.55
2023-04-26T03:15:01.094Z,79.38
2023-04-26T03:17:29.272Z,79.65
2023-04-26T03:19:59.543Z,80.33
2023-04-26T03:22:28.524Z,80.35
2023-04-26T03:24:55.470Z,81.00
2023-04-26T03:27:22.833Z,81.19
2023-04-26T03:29:49.790Z,81.00
2023-04-26T03:32:16.818Z,81.02
2023-04-26T03:34:44.339Z,80.91
2023-04-26T03:37:12.892Z,80.89
2023-04-26T03:39:40.311Z,81.09
2023-04-26T03:42:08.149Z,82.69
2023-04-26T03:44:35.641Z,83.23
2023-04-26T03:47:02.526Z,83.64
2023-04-26T03:49:29.622Z,82.78
2023-04-26T03:51:56.505Z,82.87
2023-04-26T03:54:25.119Z,82.61
2023-04-26T03:56:52.633Z,82.13
2023-04-26T03:59:20.486Z,82.37
2023-04-26T04:01:48.157Z,81.71
2023-04-26T04:04:15.378Z,81.53
2023-04-26T04:06:43.030Z,81.65
2023-04-26T04:09:09.932Z,81.36
2023-04-26T04:11:38.317Z,81.21
2023-04-26T04:14:05.625Z,81.55
2023-04-26T04:16:33.052Z,81.08
2023-04-26T04:19:00.276Z,81.10
2023-04-26T04:21:28.015Z,81.33
2023-04-26T04:23:55.572Z,81.47
2023-04-26T04:26:22.934Z,81.54
2023-04-26T04:28:51.448Z,81.24
2023-04-26T04:31:19.044Z,81.23
2023-04-26T04:33:46.103Z,81.14
2023-04-26T04:36:13.632Z,80.42
2023-04-26T04:38:40.461Z,79.87
2023-04-26T04:41:08.424Z,78.81
2023-04-26T04:43:35.951Z,78.34
2023-04-26T04:46:04.944Z,78.24
2023-04-26T04:48:32.190Z,77.36
2023-04-26T04:50:59.916Z,76.55
2023-04-26T04:53:26.962Z,76.26
2023-04-26T04:55:54.378Z,74.00
2023-04-26T04:58:21.930Z,74.60
2023-04-26T05:00:49.036Z,75.20
2023-04-26T05:03:29.912Z,74.39
2023-04-26T05:05:58.076Z,73.42
2023-04-26T05:08:27.428Z,72.70
2023-04-26T05:10:57.547Z,71.13
2023-04-26T05:13:24.743Z,69.37
2023-04-26T05:15:51.819Z,68.23
2023-04-26T05:18:19.397Z,68.55
2023-04-26T05:20:47.854Z,66.93
2023-04-26T05:23:15.403Z,64.80
2023-04-26T05:25:42.591Z,63.15
2023-04-26T05:28:28.066Z,62.70
2023-04-26T05:31:08.815Z,63.01
2023-04-26T05:33:53.165Z,62.48
2023-04-26T05:36:30.654Z,61.06
2023-04-26T05:38:57.675Z,60.90
2023-04-26T05:41:24.728Z,60.93
2023-04-26T05:43:52.111Z,61.10
2023-04-26T05:46:20.159Z,61.14
2023-04-26T05:48:47.172Z,60.60
2023-04-26T05:51:14.042Z,60.36
2023-04-26T05:53:42.406Z,59.20
2023-04-26T05:56:09.692Z,55.98
2023-04-26T05:58:37.366Z,55.19
2023-04-26T06:01:05.069Z,53.86
2023-04-26T06:03:32.217Z,52.68
2023-04-26T06:05:59.584Z,51.99
2023-04-26T06:08:27.560Z,50.92
2023-04-26T06:10:56.402Z,50.56
2023-04-26T06:13:23.297Z,48.60
2023-04-26T06:15:50.214Z,47.99
2023-04-26T06:18:17.056Z,48.32
2023-04-26T06:20:43.906Z,48.06
2023-04-26T06:23:10.809Z,46.64
2023-04-26T06:25:38.109Z,44.80
2023-04-26T06:28:06.381Z,44.87
2023-04-26T06:30:34.156Z,44.17
2023-04-26T06:33:01.301Z,42.91
2023-04-26T06:35:30.615Z,41.88
2023-04-26T06:37:57.863Z,40.48
2023-04-26T06:40:25.992Z,40.71
2023-04-26T06:42:53.121Z,40.31
2023-04-26T06:45:47.433Z,40.46
2023-04-26T06:48:14.426Z,40.31
2023-04-26T06:50:41.548Z,39.04
2023-04-26T06:53:08.649Z,39.08
2023-04-26T06:55:40.124Z,38.55
2023-04-26T06:58:12.150Z,37.81
2023-04-26T07:00:39.612Z,36.73
2023-04-26T07:03:08.313Z,36.67
2023-04-26T07:05:44.216Z,36.02
2023-04-26T07:08:11.513Z,35.35
2023-04-26T07:10:47.987Z,32.88
2023-04-26T07:13:16.515Z,32.75
2023-04-26T07:15:43.710Z,34.90
2023-04-26T07:18:12.283Z,35.86
2023-04-26T07:20:40.547Z,35.53
2023-04-26T07:23:07.651Z,34.28
2023-04-26T07:25:34.581Z,34.36
2023-04-26T07:28:04.132Z,34.39
2023-04-26T07:30:32.667Z,35.36
2023-04-26T07:32:59.924Z,34.53
2023-04-26T07:35:28.604Z,33.48
2023-04-26T07:38:14.422Z,33.56
2023-04-26T07:41:22.643Z,33.29
2023-04-26T07:43:53.732Z,35.62
2023-04-26T07:46:21.715Z,36.39
2023-04-26T07:48:49.081Z,37.25
2023-04-26T07:51:17.475Z,35.83
2023-04-26T07:53:44.636Z,33.34
2023-04-26T07:56:11.635Z,31.21
2023-04-26T07:59:11.472Z,33.11
2023-04-26T08:01:39.532Z,33.99
2023-04-26T08:04:08.309Z,34.76
2023-04-26T08:06:37.016Z,33.73
2023-04-26T08:09:04.431Z,32.79
2023-04-26T08:11:31.738Z,31.67
2023-04-26T08:13:58.721Z,31.37
2023-04-26T08:16:25.699Z,31.03
2023-04-26T08:18:52.661Z,30.16
2023-04-26T08:21:21.555Z,28.07
2023-04-26T08:23:50.816Z,30.51
2023-04-26T08:26:17.984Z,29.82
2023-04-26T08:28:44.951Z,31.78
2023-04-26T08:31:12.882Z,31.46
2023-04-26T08:33:41.710Z,30.67
2023-04-26T08:36:09.387Z,30.49
2023-04-26T08:38:36.764Z,30.45
2023-04-26T08:41:06.666Z,29.97
2023-04-26T08:43:36.853Z,32.87
2023-04-26T08:46:12.655Z,33.97
2023-04-26T08:48:41.607Z,34.68
2023-04-26T08:51:14.088Z,33.49
2023-04-26T08:53:43.145Z,33.51
2023-04-26T08:56:13.448Z,33.37
2023-04-26T08:58:41.022Z,31.65
2023-04-26T09:01:10.490Z,31.25
2023-04-26T09:04:28.045Z,30.05
2023-04-26T09:07:01.113Z,28.28
2023-04-26T09:09:59.697Z,28.97
2023-04-26T09:12:28.321Z,29.21
2023-04-26T09:14:55.737Z,29.76
2023-04-26T09:17:28.299Z,29.64
2023-04-26T09:19:56.541Z,28.88
2023-04-26T09:22:31.987Z,30.36
2023-04-26T09:25:01.375Z,31.94
2023-04-26T09:27:39.166Z,30.06
2023-04-26T09:30:12.103Z,30.14
2023-04-26T09:32:53.723Z,29.20
2023-04-26T09:35:25.753Z,29.19
2023-04-26T09:38:20.111Z,29.36
2023-04-26T09:40:52.357Z,28.65
2023-04-26T09:43:23.055Z,29.85
2023-04-26T09:45:52.620Z,30.55
2023-04-26T09:48:21.993Z,31.61
2023-04-26T09:50:51.329Z,32.08
2023-04-26T09:53:29.284Z,33.22
2023-04-26T09:56:05.978Z,34.80
2023-04-26T09:58:36.554Z,35.56
2023-04-26T10:01:04.967Z,35.10
2023-04-26T10:03:35.943Z,35.07
2023-04-26T10:06:04.278Z,37.10
2023-04-26T10:08:35.757Z,35.57
2023-04-26T10:11:15.927Z,34.02
2023-04-26T10:13:46.146Z,33.36
2023-04-26T10:16:13.259Z,34.01
2023-04-26T10:19:04.428Z,33.91
2023-04-26T10:21:39.193Z,33.56
2023-04-26T10:24:08.335Z,32.60
2023-04-26T10:27:07.116Z,33.07
2023-04-26T10:30:10.114Z,31.38
2023-04-26T10:33:17.388Z,31.99
2023-04-26T10:36:15.074Z,36.41
2023-04-26T10:39:25.045Z,36.79
2023-04-26T10:42:22.468Z,34.25
2023-04-26T10:44:51.696Z,34.04
2023-04-26T10:47:32.066Z,32.59
2023-04-26T10:50:06.422Z,34.16
2023-04-26T10:52:35.273Z,34.94
2023-04-26T10:55:04.268Z,35.07
2023-04-26T10:57:51.735Z,32.60
2023-04-26T11:04:53.865Z,32.56
2023-04-26T11:07:39.979Z,32.34
2023-04-26T11:10:09.429Z,34.22
2023-04-26T11:12:36.927Z,34.16
2023-04-26T11:15:05.393Z,32.50
2023-04-26T11:17:37.225Z,33.31
2023-04-26T11:20:10.886Z,33.75
2023-04-26T11:22:40.361Z,34.42
2023-04-26T11:25:45.018Z,33.51
2023-04-26T11:28:13.126Z,34.55
2023-04-26T11:30:41.195Z,33.68
2023-04-26T11:33:17.554Z,33.04
2023-04-26T11:35:46.511Z,34.09
2023-04-26T11:38:44.033Z,33.22
2023-04-26T11:41:11.626Z,34.19
2023-04-26T11:43:40.158Z,32.41
2023-04-26T11:46:37.586Z,32.94
2023-04-26T11:49:08.554Z,35.36
2023-04-26T11:51:37.595Z,32.44
2023-04-26T11:54:04.938Z,31.58
2023-04-26T11:56:32.062Z,32.57
2023-04-26T11:58:59.836Z,32.97
2023-04-26T12:02:08.084Z,33.35
2023-04-26T12:04:35.408Z,34.78
2023-04-26T12:07:05.190Z,35.78
2023-04-26T12:09:33.129Z,37.32
2023-04-26T12:12:02.567Z,37.87
2023-04-26T12:14:33.242Z,38.22
2023-04-26T12:17:01.228Z,38.30
2023-04-26T12:19:28.593Z,37.59
2023-04-26T12:25:54.084Z,38.49
2023-04-26T12:28:21.784Z,39.87
2023-04-26T12:30:49.687Z,38.24
2023-04-26T12:33:17.884Z,38.80
2023-04-26T12:35:50.633Z,39.10
2023-04-26T12:38:18.773Z,39.06
2023-04-26T12:40:48.831Z,39.22
2023-04-26T12:43:15.779Z,39.76
2023-04-26T12:45:42.854Z,39.53
2023-04-26T12:48:10.241Z,39.40
2023-04-26T12:50:37.281Z,37.72
2023-04-26T12:53:05.538Z,37.21
2023-04-26T12:55:33.140Z,36.11
2023-04-26T12:58:02.206Z,36.79
2023-04-26T13:00:30.213Z,35.81
2023-04-26T13:02:57.593Z,37.17
2023-04-26T13:05:24.645Z,36.03
2023-04-26T13:07:52.276Z,36.69
2023-04-26T13:10:19.271Z,39.30
2023-04-26T13:12:46.435Z,38.23
2023-04-26T13:15:17.351Z,39.05
2023-04-26T13:17:44.791Z,38.62
2023-04-26T13:20:14.116Z,37.70
2023-04-26T13:22:42.188Z,35.31
2023-04-26T13:26:27.534Z,37.67
2023-04-26T13:28:55.715Z,35.80
2023-04-26T13:31:24.513Z,34.96
2023-04-26T13:33:51.712Z,35.18
2023-04-26T13:36:18.625Z,35.33
2023-04-26T13:38:46.192Z,34.45
2023-04-26T13:41:14.086Z,34.73
2023-04-26T13:43:40.955Z,34.79
2023-04-26T13:46:08.090Z,34.83
2023-04-26T13:48:36.470Z,34.52
2023-04-26T13:51:06.882Z,34.97
2023-04-26T13:53:34.902Z,33.52
2023-04-26T13:56:02.008Z,35.28
2023-04-26T13:58:29.009Z,34.47
2023-04-26T14:00:56.625Z,34.19
2023-04-26T14:03:25.109Z,33.44
2023-04-26T14:05:54.639Z,33.08
2023-04-26T14:08:22.984Z,34.57
2023-04-26T14:10:49.928Z,34.85
2023-04-26T14:13:17.563Z,35.44
2023-04-26T14:15:44.471Z,35.60
2023-04-26T14:18:11.557Z,36.23
2023-04-26T14:20:38.588Z,35.75
2023-04-26T14:23:06.822Z,35.49
2023-04-26T14:25:34.161Z,35.79
2023-04-26T14:28:01.392Z,35.24
2023-04-26T14:30:29.319Z,35.78
2023-04-26T14:32:56.407Z,35.64
2023-04-26T14:35:23.450Z,35.92
2023-04-26T14:37:50.521Z,36.79
2023-04-26T14:40:19.153Z,37.30
2023-04-26T14:42:46.363Z,37.88
2023-04-26T14:45:14.203Z,38.62
2023-04-26T14:47:41.659Z,38.65
2023-04-26T14:50:10.093Z,38.98
2023-04-26T14:52:37.494Z,38.15
2023-04-26T14:55:05.695Z,38.25
2023-04-26T14:57:34.048Z,37.12
2023-04-26T15:00:00.961Z,37.19
2023-04-26T15:02:27.937Z,37.15
2023-04-26T15:04:55.007Z,35.79
2023-04-26T15:07:31.212Z,35.14
2023-04-26T15:09:59.569Z,35.90
2023-04-26T15:12:26.472Z,36.96
2023-04-26T15:14:54.795Z,37.85
2023-04-26T15:17:21.822Z,36.44
2023-04-26T15:19:48.693Z,36.50
2023-04-26T15:22:18.457Z,36.79
2023-04-26T15:24:45.347Z,36.15
2023-04-26T15:27:12.298Z,35.66
2023-04-26T15:29:39.289Z,36.90
2023-04-26T15:32:09.182Z,36.23
2023-04-26T15:34:41.329Z,35.20
2023-04-26T15:37:08.578Z,36.77
2023-04-26T15:39:35.558Z,37.02
2023-04-26T15:42:02.574Z,36.17
2023-04-26T15:44:30.168Z,37.09
2023-04-26T15:46:57.418Z,35.86
2023-04-26T15:49:26.000Z,35.11
2023-04-26T15:51:53.000Z,36.03
2023-04-26T15:54:20.099Z,35.23
2023-04-26T15:56:47.179Z,36.44
2023-04-26T15:59:14.425Z,36.10
2023-04-26T16:01:41.647Z,35.48
2023-04-26T16:04:08.815Z,36.84
2023-04-26T16:06:37.233Z,37.66
2023-04-26T16:09:06.458Z,38.25
2023-04-26T16:16:22.952Z,37.41
2023-04-26T16:18:50.711Z,38.93
2023-04-26T16:21:17.693Z,39.26
2023-04-26T16:27:30.323Z,38.50
2023-04-26T16:29:57.264Z,39.55
2023-04-26T16:32:24.344Z,39.18
2023-04-26T16:34:52.150Z,40.05
2023-04-26T16:37:19.204Z,38.19
2023-04-26T16:39:46.096Z,38.77
2023-04-26T16:42:13.064Z,39.62
2023-04-26T16:44:41.523Z,38.79
2023-04-26T16:47:08.379Z,38.30
2023-04-26T16:49:35.234Z,38.33
2023-04-26T16:56:14.970Z,39.75
2023-04-26T16:58:42.172Z,38.73
2023-04-26T17:01:10.782Z,38.77
2023-04-26T17:03:38.413Z,39.27
2023-04-26T17:06:08.581Z,39.55
2023-04-26T17:08:36.368Z,39.64
2023-04-26T17:11:06.155Z,40.46
2023-04-26T17:13:35.358Z,40.97
2023-04-26T17:16:02.378Z,40.69
2023-04-26T17:18:31.695Z,40.75
2023-04-26T17:20:58.884Z,41.12
2023-04-26T17:23:25.908Z,41.15
2023-04-26T17:25:55.136Z,41.61
2023-04-26T17:28:22.859Z,41.14
2023-04-26T17:30:49.832Z,41.86
2023-04-26T17:33:36.757Z,42.56
2023-04-26T17:36:05.127Z,42.72
2023-04-26T17:38:32.840Z,43.21
2023-04-26T17:41:00.245Z,42.81
2023-04-26T17:43:28.217Z,43.38
2023-04-26T17:45:56.237Z,42.76
2023-04-26T17:48:24.089Z,42.55
2023-04-26T17:50:52.845Z,43.33
2023-04-26T17:53:20.104Z,43.44
2023-04-26T17:55:47.572Z,43.31
2023-04-26T17:58:14.435Z,43.00
2023-04-26T18:00:42.485Z,43.37
2023-04-26T18:03:17.313Z,43.29
2023-04-26T18:05:45.231Z,43.32
2023-04-26T18:08:14.297Z,43.40
2023-04-26T18:10:47.157Z,44.19
2023-04-26T18:13:15.621Z,44.54
2023-04-26T18:15:42.546Z,44.74
2023-04-26T18:18:10.480Z,44.04
2023-04-26T18:20:38.106Z,44.83
2023-04-26T18:23:05.168Z,45.13
2023-04-26T18:25:33.683Z,45.42
2023-04-26T18:28:00.565Z,45.08
2023-04-26T18:30:27.710Z,44.59
2023-04-26T18:32:54.851Z,44.53
2023-04-26T18:35:21.749Z,45.09
2023-04-26T18:37:48.771Z,44.26
2023-04-26T18:40:15.914Z,44.42
2023-04-26T18:42:44.767Z,43.83
2023-04-26T18:45:13.155Z,43.34
2023-04-26T18:47:40.281Z,44.46
2023-04-26T18:50:08.733Z,44.66
2023-04-26T18:52:35.657Z,45.06
2023-04-26T18:55:02.677Z,44.86
2023-04-26T18:57:32.551Z,44.91
2023-04-26T19:00:01.398Z,45.51
2023-04-26T19:02:28.602Z,46.89
2023-04-26T19:04:55.997Z,49.25
2023-04-26T19:07:23.624Z,52.58
2023-04-26T19:09:54.337Z,52.54
2023-04-26T19:12:22.362Z,52.98
2023-04-26T19:14:49.223Z,54.17
2023-04-26T19:17:17.683Z,53.54
2023-04-26T19:19:44.588Z,52.25
2023-04-26T19:22:12.672Z,52.17
2023-04-26T19:24:39.635Z,50.47
2023-04-26T19:27:06.563Z,51.00
2023-04-26T19:29:33.439Z,51.95
2023-04-26T19:32:00.518Z,52.51
2023-04-26T19:34:28.752Z,52.32
2023-04-26T19:36:55.561Z,52.95
2023-04-26T19:39:23.855Z,52.89
2023-04-26T19:41:50.916Z,58.00
2023-04-26T19:44:18.107Z,57.98
2023-04-26T19:46:45.186Z,58.80
2023-04-26T19:49:12.549Z,60.02
2023-04-26T19:51:40.925Z,62.58
2023-04-26T19:54:08.361Z,64.04
2023-04-26T19:56:35.242Z,64.93
2023-04-26T19:59:02.201Z,65.53
2023-04-26T20:01:29.226Z,65.58
2023-04-26T20:03:56.680Z,64.80
2023-04-26T20:06:23.686Z,64.78
2023-04-26T20:08:53.018Z,64.10
2023-04-26T20:11:20.162Z,64.36
2023-04-26T20:13:47.107Z,64.35
2023-04-26T20:16:14.621Z,65.32
2023-04-26T20:18:41.658Z,64.13
2023-04-26T20:21:09.074Z,64.95
2023-04-26T20:23:36.125Z,66.09
2023-04-26T20:26:04.313Z,66.51
2023-04-26T20:28:31.239Z,67.02
2023-04-26T20:30:58.050Z,67.18
2023-04-26T20:33:24.992Z,68.24
2023-04-26T20:35:52.090Z,69.48
2023-04-26T20:38:19.541Z,70.86
2023-04-26T20:40:47.169Z,70.91
2023-04-26T20:43:15.420Z,70.76
2023-04-26T20:45:42.388Z,70.34
2023-04-26T20:48:09.900Z,70.25
2023-04-26T20:50:37.359Z,69.35
2023-04-26T20:53:04.567Z,68.42
2023-04-26T20:55:31.425Z,66.36
2023-04-26T20:57:58.389Z,64.65
2023-04-26T21:00:27.839Z,64.78
2023-04-26T21:02:54.848Z,66.62
2023-04-26T21:05:22.294Z,67.56
2023-04-26T21:07:49.308Z,67.62
2023-04-26T21:10:16.417Z,66.58
2023-04-26T21:12:43.544Z,67.05
2023-04-26T21:15:11.652Z,66.42
2023-04-26T21:17:40.262Z,67.49
2023-04-26T21:20:08.272Z,68.43
2023-04-26T21:22:35.337Z,68.50
2023-04-26T21:25:02.609Z,69.00
2023-04-26T21:27:29.693Z,68.60
2023-04-26T21:29:57.203Z,68.01
2023-04-26T21:32:24.214Z,67.11
2023-04-26T21:34:52.528Z,67.33
2023-04-26T21:37:19.770Z,67.36
2023-04-26T21:39:46.698Z,67.76
2023-04-26T21:42:13.672Z,68.40
2023-04-26T21:44:40.830Z,67.84
2023-04-26T21:51:45.027Z,66.50
2023-04-26T21:54:12.809Z,66.46
2023-04-26T21:56:39.815Z,66.26
2023-04-26T21:59:06.796Z,66.56
2023-04-26T22:01:34.008Z,66.67
2023-04-26T22:04:01.044Z,67.09
2023-04-26T22:06:28.082Z,67.75
2023-04-26T22:08:57.104Z,70.04
2023-04-26T22:11:24.222Z,71.22
2023-04-26T22:13:51.703Z,71.87
2023-04-26T22:16:18.828Z,71.97
2023-04-26T22:18:45.863Z,72.99
2023-04-26T22:21:12.759Z,72.24
2023-04-26T22:23:39.611Z,71.57
2023-04-26T22:26:07.933Z,71.18
2023-04-26T22:28:34.893Z,70.59
2023-04-26T22:31:02.007Z,70.40
2023-04-26T22:33:28.904Z,70.85
2023-04-26T22:35:56.085Z,70.87
2023-04-26T22:38:23.147Z,71.02
2023-04-26T22:40:50.355Z,70.89
2023-04-26T22:43:18.845Z,70.99
2023-04-26T22:45:46.515Z,71.30
2023-04-26T22:48:13.492Z,71.41
2023-04-26T22:50:40.435Z,70.89
2023-04-26T22:53:07.324Z,70.47
2023-04-26T22:55:34.293Z,70.32
2023-04-26T22:58:01.171Z,70.38
2023-04-26T23:00:29.507Z,70.53
2023-04-26T23:02:56.531Z,70.54
2023-04-26T23:05:23.528Z,70.41
2023-04-26T23:07:50.450Z,70.03
2023-04-26T23:10:17.396Z,68.93
2023-04-26T23:12:45.098Z,68.60
2023-04-26T23:15:12.551Z,68.38
2023-04-26T23:17:41.425Z,68.48
2023-04-26T23:20:09.794Z,68.74
2023-04-26T23:22:36.732Z,69.50
2023-04-26T23:25:03.841Z,69.88
2023-04-26T23:27:30.783Z,70.09
2023-04-26T23:29:57.867Z,69.50
2023-04-26T23:32:25.017Z,70.17
2023-04-26T23:34:53.257Z,70.03
2023-04-26T23:37:20.184Z,69.65
2023-04-26T23:39:46.961Z,69.55
2023-04-26T23:42:13.818Z,69.77
2023-04-26T23:44:40.719Z,69.76
2023-04-26T23:47:07.564Z,69.31
2023-04-26T23:49:34.557Z,68.85
2023-04-26T23:52:02.870Z,69.02
2023-04-26T23:54:29.809Z,69.06
2023-04-26T23:56:56.729Z,69.66
2023-04-26T23:59:23.724Z,71.83
